createdAt,value
2022-09-03T00:00:04.762Z,3.97
2022-09-03T00:02:14.415Z,3.70
2022-09-03T00:04:26.615Z,3.43
2022-09-03T00:06:36.191Z,3.00
2022-09-03T00:08:45.691Z,3.20
2022-09-03T00:10:55.613Z,3.70
2022-09-03T00:13:03.877Z,3.37
2022-09-03T00:15:12.595Z,3.47
2022-09-03T00:17:19.269Z,3.53
2022-09-03T00:19:26.890Z,3.73
2022-09-03T00:21:39.932Z,3.53
2022-09-03T00:23:45.642Z,3.50
2022-09-03T00:25:53.547Z,3.40
2022-09-03T00:28:00.160Z,3.27
2022-09-03T00:30:06.508Z,3.77
2022-09-03T00:32:18.617Z,3.53
2022-09-03T00:34:27.396Z,4.73
2022-09-03T00:36:42.693Z,4.10
2022-09-03T00:38:46.307Z,3.53
2022-09-03T00:41:03.049Z,4.00
2022-09-03T00:43:18.923Z,3.40
2022-09-03T00:45:33.910Z,3.37
2022-09-03T00:47:49.596Z,3.70
2022-09-03T00:50:05.632Z,3.40
2022-09-03T00:52:19.715Z,3.60
2022-09-03T00:54:35.540Z,3.70
2022-09-03T00:56:46.839Z,4.50
2022-09-03T00:59:18.161Z,4.10
2022-09-03T01:01:25.540Z,4.10
2022-09-03T01:03:39.523Z,3.43
2022-09-03T01:05:51.325Z,4.10
2022-09-03T01:08:08.259Z,4.10
2022-09-03T01:10:27.423Z,3.73
2022-09-03T01:12:39.879Z,4.57
2022-09-03T01:14:53.950Z,3.67
2022-09-03T01:17:03.511Z,4.33
2022-09-03T01:19:26.611Z,4.27
2022-09-03T01:21:50.111Z,3.60
2022-09-03T01:24:32.746Z,3.70
2022-09-03T01:26:55.385Z,3.80
2022-09-03T01:29:12.879Z,4.20
2022-09-03T01:31:27.183Z,5.13
2022-09-03T01:33:36.725Z,3.43
2022-09-03T01:35:46.392Z,3.90
2022-09-03T01:38:02.890Z,3.53
2022-09-03T01:40:14.204Z,4.10
2022-09-03T01:42:23.861Z,3.97
2022-09-03T01:44:40.344Z,3.97
2022-09-03T01:46:45.870Z,3.60
2022-09-03T01:48:56.263Z,4.00
2022-09-03T01:51:07.730Z,3.60
2022-09-03T01:53:20.660Z,3.90
2022-09-03T01:55:33.348Z,3.77
2022-09-03T01:57:56.122Z,3.13
2022-09-03T02:00:06.658Z,3.40
2022-09-03T02:02:20.422Z,3.50
2022-09-03T02:04:25.344Z,3.20
2022-09-03T02:06:32.040Z,3.80
2022-09-03T02:08:35.990Z,3.70
2022-09-03T02:10:44.645Z,3.60
2022-09-03T02:12:52.673Z,4.13
2022-09-03T02:14:56.891Z,4.60
2022-09-03T02:17:04.449Z,4.33
2022-09-03T02:19:12.098Z,3.73
2022-09-03T02:21:20.122Z,4.33
2022-09-03T02:23:24.683Z,3.80
2022-09-03T02:25:35.001Z,4.30
2022-09-03T02:27:38.719Z,4.17
2022-09-03T02:29:42.069Z,3.97
2022-09-03T02:31:46.118Z,4.30
2022-09-03T02:33:51.992Z,4.17
2022-09-03T02:35:55.730Z,4.47
2022-09-03T02:37:59.010Z,4.40
2022-09-03T02:40:05.689Z,3.90
2022-09-03T02:42:10.602Z,3.53
2022-09-03T02:44:24.034Z,4.30
2022-09-03T02:46:33.926Z,4.00
2022-09-03T02:48:37.578Z,4.10
2022-09-03T02:50:44.300Z,4.27
2022-09-03T02:52:47.643Z,3.87
2022-09-03T02:54:51.128Z,3.90
2022-09-03T02:56:54.395Z,3.80
2022-09-03T02:58:58.380Z,3.17
2022-09-03T03:01:01.996Z,3.63
2022-09-03T03:03:05.444Z,3.70
2022-09-03T03:05:10.961Z,4.07
2022-09-03T03:07:15.685Z,4.37
2022-09-03T03:09:19.288Z,3.60
2022-09-03T03:11:23.125Z,3.27
2022-09-03T03:13:26.600Z,3.30
2022-09-03T03:15:30.051Z,4.40
2022-09-03T03:17:33.290Z,4.67
2022-09-03T03:19:36.757Z,4.10
2022-09-03T03:21:40.255Z,4.07
2022-09-03T03:23:45.746Z,4.40
2022-09-03T03:25:49.423Z,4.47
2022-09-03T03:27:53.149Z,4.70
2022-09-03T03:29:56.949Z,4.03
2022-09-03T03:32:00.526Z,3.73
2022-09-03T03:34:04.818Z,3.43
2022-09-03T03:36:08.992Z,3.93
2022-09-03T03:38:12.410Z,3.73
2022-09-03T03:40:17.461Z,4.40
2022-09-03T03:42:20.783Z,4.70
2022-09-03T03:44:24.036Z,4.90
2022-09-03T03:46:31.751Z,3.40
2022-09-03T03:48:35.599Z,4.83
2022-09-03T03:50:38.866Z,4.40
2022-09-03T03:52:42.106Z,4.03
2022-09-03T03:54:45.381Z,3.80
2022-09-03T03:56:55.449Z,3.90
2022-09-03T03:59:00.990Z,4.43
2022-09-03T04:01:08.856Z,4.33
2022-09-03T04:03:12.181Z,4.37
2022-09-03T04:05:15.527Z,4.30
2022-09-03T04:07:21.278Z,4.43
2022-09-03T04:09:25.135Z,4.13
2022-09-03T04:11:28.672Z,3.70
2022-09-03T04:13:34.373Z,4.57
2022-09-03T04:15:37.798Z,4.23
2022-09-03T04:17:41.259Z,4.63
2022-09-03T04:19:48.288Z,3.77
2022-09-03T04:21:51.484Z,4.57
2022-09-03T04:23:55.932Z,4.37
2022-09-03T04:25:59.631Z,4.60
2022-09-03T04:28:03.937Z,4.40
2022-09-03T04:30:10.557Z,4.23
2022-09-03T04:32:31.154Z,4.80
2022-09-03T04:34:34.442Z,4.83
2022-09-03T04:36:38.829Z,4.10
2022-09-03T04:38:43.736Z,4.70
2022-09-03T04:40:53.697Z,4.17
2022-09-03T04:42:59.538Z,4.90
2022-09-03T04:45:03.138Z,4.80
2022-09-03T04:47:08.037Z,4.87
2022-09-03T04:49:11.257Z,4.77
2022-09-03T04:51:16.274Z,4.27
2022-09-03T04:53:22.755Z,4.67
2022-09-03T04:55:25.927Z,4.53
2022-09-03T04:57:34.458Z,4.70
2022-09-03T04:59:37.986Z,4.50
2022-09-03T05:01:41.838Z,5.53
2022-09-03T05:03:46.917Z,4.60
2022-09-03T05:05:56.845Z,4.90
2022-09-03T05:08:01.812Z,5.10
2022-09-03T05:10:06.450Z,5.00
2022-09-03T05:12:10.993Z,5.17
2022-09-03T05:14:14.545Z,4.77
2022-09-03T05:16:19.529Z,4.10
2022-09-03T05:18:22.788Z,4.33
2022-09-03T05:20:29.641Z,4.27
2022-09-03T05:22:32.796Z,3.93
2022-09-03T05:24:35.970Z,4.37
2022-09-03T05:26:40.770Z,5.10
2022-09-03T05:28:45.101Z,4.40
2022-09-03T05:30:48.376Z,3.70
2022-09-03T05:32:52.079Z,3.77
2022-09-03T05:34:55.746Z,3.87
2022-09-03T05:37:00.720Z,3.87
2022-09-03T05:39:05.121Z,4.23
2022-09-03T05:41:10.631Z,3.70
2022-09-03T05:43:13.987Z,4.10
2022-09-03T05:45:17.451Z,4.00
2022-09-03T05:47:20.854Z,3.90
2022-09-03T05:49:24.146Z,4.43
2022-09-03T05:51:27.497Z,4.53
2022-09-03T05:53:34.740Z,4.20
2022-09-03T05:55:38.648Z,4.93
2022-09-03T05:57:43.579Z,3.67
2022-09-03T05:59:47.100Z,4.33
2022-09-03T06:01:53.719Z,3.73
2022-09-03T06:04:01.501Z,3.27
2022-09-03T06:06:05.085Z,3.33
2022-09-03T06:08:08.281Z,2.83
2022-09-03T06:10:20.284Z,3.50
2022-09-03T06:12:26.854Z,3.03
2022-09-03T06:14:30.291Z,3.27
2022-09-03T06:16:34.895Z,3.53
2022-09-03T06:18:38.135Z,2.90
2022-09-03T06:20:41.349Z,3.77
2022-09-03T06:22:49.220Z,3.27
2022-09-03T06:24:52.514Z,2.90
2022-09-03T06:26:57.268Z,3.57
2022-09-03T06:29:01.463Z,3.60
2022-09-03T06:31:06.271Z,2.70
2022-09-03T06:33:09.694Z,2.97
2022-09-03T06:35:13.011Z,2.87
2022-09-03T06:37:16.240Z,2.87
2022-09-03T06:39:19.433Z,2.73
2022-09-03T06:41:25.036Z,3.20
2022-09-03T06:43:30.638Z,2.17
2022-09-03T06:45:34.195Z,2.90
2022-09-03T06:47:37.947Z,3.53
2022-09-03T06:49:41.242Z,2.57
2022-09-03T06:51:44.820Z,2.60
2022-09-03T06:53:49.949Z,2.73
2022-09-03T06:55:56.806Z,2.00
2022-09-03T06:58:00.125Z,2.63
2022-09-03T07:00:05.655Z,2.53
2022-09-03T07:02:09.201Z,2.10
2022-09-03T07:04:12.992Z,2.60
2022-09-03T07:06:18.046Z,2.27
2022-09-03T07:08:21.443Z,2.03
2022-09-03T07:10:24.703Z,2.27
2022-09-03T07:12:28.239Z,2.50
2022-09-03T07:14:31.428Z,1.77
2022-09-03T07:16:37.678Z,2.50
2022-09-03T07:18:44.587Z,2.23
2022-09-03T07:20:48.247Z,2.17
2022-09-03T07:22:51.435Z,1.83
2022-09-03T07:24:54.573Z,2.30
2022-09-03T07:26:58.227Z,2.03
2022-09-03T07:29:02.163Z,2.93
2022-09-03T07:31:07.309Z,2.37
2022-09-03T07:33:11.901Z,2.00
2022-09-03T07:35:15.237Z,2.30
2022-09-03T07:37:18.772Z,2.80
2022-09-03T07:39:22.838Z,2.40
2022-09-03T07:41:29.037Z,2.23
2022-09-03T07:43:40.126Z,2.23
2022-09-03T07:45:46.551Z,1.80
2022-09-03T07:47:50.733Z,2.70
2022-09-03T07:49:55.412Z,2.20
2022-09-03T07:51:58.671Z,1.83
2022-09-03T07:54:04.960Z,2.10
2022-09-03T07:56:10.011Z,2.20
2022-09-03T07:58:14.218Z,2.33
2022-09-03T08:00:18.310Z,2.67
2022-09-03T08:02:21.827Z,2.20
2022-09-03T08:04:25.010Z,1.90
2022-09-03T08:06:31.020Z,1.97
2022-09-03T08:08:36.244Z,2.00
2022-09-03T08:10:40.106Z,2.20
2022-09-03T08:12:43.413Z,2.13
2022-09-03T08:14:46.665Z,2.17
2022-09-03T08:16:50.128Z,1.83
2022-09-03T08:18:53.376Z,2.17
2022-09-03T08:21:00.584Z,1.60
2022-09-03T08:23:05.678Z,2.00
2022-09-03T08:25:09.793Z,2.10
2022-09-03T08:27:22.042Z,1.67
2022-09-03T08:29:25.892Z,1.73
2022-09-03T08:31:31.124Z,1.80
2022-09-03T08:33:41.182Z,1.93
2022-09-03T08:35:44.389Z,1.90
2022-09-03T08:37:51.786Z,1.80
2022-09-03T08:40:00.446Z,1.27
2022-09-03T08:42:25.569Z,2.07
2022-09-03T08:44:32.447Z,1.47
2022-09-03T08:46:43.158Z,1.50
2022-09-03T08:48:47.523Z,1.73
2022-09-03T08:50:59.231Z,1.90
2022-09-03T08:53:04.961Z,1.17
2022-09-03T08:55:26.037Z,1.83
2022-09-03T08:57:33.702Z,2.10
2022-09-03T08:59:37.275Z,2.17
2022-09-03T09:01:54.991Z,1.80
2022-09-03T09:04:06.484Z,2.30
2022-09-03T09:06:24.978Z,2.33
2022-09-03T09:08:36.329Z,2.20
2022-09-03T09:10:46.639Z,2.00
2022-09-03T09:13:13.560Z,1.50
2022-09-03T09:15:28.449Z,1.70
2022-09-03T09:17:47.021Z,1.53
2022-09-03T09:20:02.666Z,1.60
2022-09-03T09:22:12.136Z,1.70
2022-09-03T09:24:26.466Z,1.60
2022-09-03T09:26:31.278Z,1.37
2022-09-03T09:28:37.702Z,1.63
2022-09-03T09:30:41.635Z,2.00
2022-09-03T09:32:45.087Z,2.00
2022-09-03T09:34:52.006Z,1.77
2022-09-03T09:36:57.038Z,1.63
2022-09-03T09:39:09.793Z,1.90
2022-09-03T09:41:13.669Z,2.00
2022-09-03T09:43:21.291Z,1.73
2022-09-03T09:45:24.884Z,1.88
2022-09-03T09:47:29.787Z,2.77
2022-09-03T09:49:35.275Z,2.37
2022-09-03T09:51:38.845Z,2.00
2022-09-03T09:53:42.448Z,2.10
2022-09-03T09:55:55.845Z,1.93
2022-09-03T09:58:13.991Z,1.53
2022-09-03T10:00:20.067Z,1.70
2022-09-03T10:02:28.605Z,1.70
2022-09-03T10:04:33.678Z,1.93
2022-09-03T10:06:56.939Z,1.70
2022-09-03T10:09:07.613Z,2.03
2022-09-03T10:11:11.480Z,1.80
2022-09-03T10:13:19.480Z,2.03
2022-09-03T10:15:33.071Z,2.23
2022-09-03T10:17:54.332Z,2.07
2022-09-03T10:20:23.110Z,1.83
2022-09-03T10:22:26.768Z,1.90
2022-09-03T10:24:43.309Z,2.07
2022-09-03T10:26:46.901Z,2.10
2022-09-03T10:28:56.040Z,2.00
2022-09-03T10:31:19.237Z,2.10
2022-09-03T10:33:30.798Z,1.83
2022-09-03T10:35:43.279Z,2.07
2022-09-03T10:37:52.245Z,2.23
2022-09-03T10:40:03.761Z,1.97
2022-09-03T10:42:22.109Z,1.97
2022-09-03T10:44:40.174Z,1.90
2022-09-03T10:46:59.547Z,2.07
2022-09-03T10:49:26.805Z,1.67
2022-09-03T10:51:36.081Z,1.43
2022-09-03T10:53:51.125Z,2.20
2022-09-03T10:56:05.526Z,1.53
2022-09-03T10:58:25.337Z,1.70
2022-09-03T11:00:30.910Z,2.17
2022-09-03T11:03:12.961Z,1.90
2022-09-03T11:05:21.777Z,1.97
2022-09-03T11:07:30.455Z,1.80
2022-09-03T11:09:40.447Z,1.90
2022-09-03T11:11:48.858Z,1.57
2022-09-03T11:14:00.317Z,1.30
2022-09-03T11:16:07.462Z,1.80
2022-09-03T11:18:20.216Z,1.50
2022-09-03T11:20:26.848Z,1.70
2022-09-03T11:22:32.182Z,1.70
2022-09-03T11:24:42.907Z,1.60
2022-09-03T11:26:49.228Z,1.80
2022-09-03T11:29:00.210Z,1.87
2022-09-03T11:31:14.573Z,1.30
2022-09-03T11:33:22.057Z,1.80
2022-09-03T11:35:31.606Z,2.00
2022-09-03T11:37:46.239Z,1.47
2022-09-03T11:39:58.990Z,1.43
2022-09-03T11:42:07.257Z,1.60
2022-09-03T11:44:19.355Z,1.30
2022-09-03T11:46:31.884Z,1.67
2022-09-03T11:48:38.352Z,1.50
2022-09-03T11:50:54.523Z,1.53
2022-09-03T11:53:11.518Z,1.37
2022-09-03T11:55:26.397Z,1.67
2022-09-03T11:57:31.878Z,1.60
2022-09-03T11:59:35.109Z,1.73
2022-09-03T12:01:38.698Z,2.00
2022-09-03T12:03:46.015Z,1.50
2022-09-03T12:06:10.087Z,3.33
2022-09-03T12:09:03.855Z,1.50
2022-09-03T12:11:20.071Z,1.87
2022-09-03T12:13:31.617Z,1.60
2022-09-03T12:16:07.593Z,1.70
2022-09-03T12:18:22.623Z,1.63
2022-09-03T12:20:29.843Z,1.40
2022-09-03T12:22:38.780Z,1.47
2022-09-03T12:24:44.705Z,1.80
2022-09-03T12:26:48.055Z,1.40
2022-09-03T12:28:53.267Z,1.47
2022-09-03T12:31:20.288Z,1.90
2022-09-03T12:33:24.919Z,1.70
2022-09-03T12:38:12.885Z,2.10
2022-09-03T12:40:21.359Z,1.50
2022-09-03T12:42:27.718Z,2.23
2022-09-03T12:44:32.654Z,1.90
2022-09-03T12:46:35.847Z,1.90
2022-09-03T12:48:43.542Z,1.67
2022-09-03T12:50:56.188Z,2.07
2022-09-03T12:53:03.636Z,1.80
2022-09-03T12:55:15.334Z,2.20
2022-09-03T12:57:23.706Z,1.97
2022-09-03T12:59:30.398Z,1.90
2022-09-03T13:01:39.977Z,2.00
2022-09-03T13:03:49.576Z,2.10
2022-09-03T13:05:57.277Z,1.90
2022-09-03T13:08:05.584Z,2.43
2022-09-03T13:10:24.865Z,1.73
2022-09-03T13:12:33.721Z,2.30
2022-09-03T13:14:46.759Z,2.77
2022-09-03T13:17:13.756Z,1.73
2022-09-03T13:19:23.463Z,2.20
2022-09-03T13:21:40.169Z,2.30
2022-09-03T13:24:16.017Z,2.60
2022-09-03T13:26:31.989Z,1.97
2022-09-03T13:28:47.773Z,2.57
2022-09-03T13:30:57.978Z,1.90
2022-09-03T13:33:06.540Z,2.60
2022-09-03T13:35:15.737Z,2.20
2022-09-03T13:37:27.490Z,2.20
2022-09-03T13:39:39.736Z,2.10
2022-09-03T13:41:48.377Z,2.50
2022-09-03T13:43:58.740Z,2.60
2022-09-03T13:46:07.340Z,2.27
2022-09-03T13:48:33.429Z,2.70
2022-09-03T13:50:44.846Z,2.47
2022-09-03T13:52:56.654Z,2.20
2022-09-03T13:55:10.087Z,2.07
2022-09-03T13:57:31.683Z,2.40
2022-09-03T13:59:41.358Z,2.37
2022-09-03T14:02:00.147Z,2.50
2022-09-03T14:04:04.711Z,2.20
2022-09-03T14:06:14.827Z,2.33
2022-09-03T14:08:26.869Z,2.10
2022-09-03T14:10:44.084Z,2.30
2022-09-03T14:12:52.192Z,2.33
2022-09-03T14:15:00.092Z,2.50
2022-09-03T14:17:13.826Z,2.53
2022-09-03T14:19:22.443Z,2.23
2022-09-03T14:21:31.652Z,2.10
2022-09-03T14:23:43.955Z,2.23
2022-09-03T14:25:55.757Z,2.40
2022-09-03T14:28:16.249Z,2.27
2022-09-03T14:30:29.934Z,2.60
2022-09-03T14:32:42.649Z,2.70
2022-09-03T14:35:16.128Z,3.30
2022-09-03T14:37:35.592Z,2.63
2022-09-03T14:39:49.674Z,2.33
2022-09-03T14:42:19.295Z,2.47
2022-09-03T14:44:38.971Z,2.87
2022-09-03T14:46:57.895Z,2.43
2022-09-03T14:49:19.720Z,1.87
2022-09-03T14:51:34.224Z,2.17
2022-09-03T14:54:04.452Z,2.13
2022-09-03T14:56:27.680Z,1.90
2022-09-03T14:58:44.493Z,2.20
2022-09-03T15:00:55.842Z,2.43
2022-09-03T15:03:30.189Z,2.67
2022-09-03T15:06:04.043Z,2.10
2022-09-03T15:08:15.786Z,2.30
2022-09-03T15:10:28.097Z,2.00
2022-09-03T15:12:37.123Z,2.40
2022-09-03T15:14:51.062Z,2.60
2022-09-03T15:17:01.519Z,2.37
2022-09-03T15:19:14.294Z,3.77
2022-09-03T15:21:27.477Z,3.77
2022-09-03T15:23:49.442Z,2.30
2022-09-03T15:26:32.011Z,2.37
2022-09-03T15:28:46.181Z,2.90
2022-09-03T15:30:57.615Z,3.50
2022-09-03T15:33:14.858Z,1.70
2022-09-03T15:35:38.107Z,2.10
2022-09-03T15:37:49.029Z,3.23
2022-09-03T15:40:04.159Z,2.73
2022-09-03T15:42:14.208Z,2.87
2022-09-03T15:44:20.090Z,2.63
2022-09-03T15:46:48.555Z,3.03
2022-09-03T15:49:00.823Z,2.47
2022-09-03T15:51:18.457Z,2.90
2022-09-03T15:53:32.980Z,2.60
2022-09-03T15:55:38.722Z,2.63
2022-09-03T15:57:51.873Z,3.40
2022-09-03T16:00:04.258Z,2.47
2022-09-03T16:02:12.064Z,2.50
2022-09-03T16:04:38.250Z,2.40
2022-09-03T16:06:53.498Z,2.40
2022-09-03T16:09:00.953Z,2.70
2022-09-03T16:11:10.989Z,3.53
2022-09-03T16:13:31.703Z,3.73
2022-09-03T16:15:41.546Z,4.20
2022-09-03T16:17:56.609Z,3.17
2022-09-03T16:20:05.294Z,4.37
2022-09-03T16:22:15.875Z,4.70
2022-09-03T16:24:22.323Z,3.47
2022-09-03T16:26:33.759Z,3.33
2022-09-03T16:28:44.120Z,2.90
2022-09-03T16:30:59.165Z,3.23
2022-09-03T16:33:11.843Z,3.13
2022-09-03T16:35:26.035Z,3.87
2022-09-03T16:37:36.545Z,3.10
2022-09-03T16:39:50.148Z,4.73
2022-09-03T16:42:05.162Z,4.53
2022-09-03T16:44:16.930Z,15.67
2022-09-03T16:46:26.311Z,11.40
2022-09-03T16:48:38.688Z,9.00
2022-09-03T16:50:58.358Z,2.50
2022-09-03T16:53:11.148Z,4.13
2022-09-03T16:55:22.956Z,4.77
2022-09-03T16:57:44.890Z,4.83
2022-09-03T17:00:08.430Z,7.07
2022-09-03T17:02:41.183Z,9.00
2022-09-03T17:05:09.492Z,7.10
2022-09-03T17:07:30.296Z,6.30
2022-09-03T17:09:50.893Z,6.87
2022-09-03T17:12:08.278Z,3.87
2022-09-03T17:14:39.777Z,3.63
2022-09-03T17:16:54.761Z,7.17
2022-09-03T17:19:09.126Z,4.80
2022-09-03T17:21:25.481Z,4.00
2022-09-03T17:24:02.480Z,7.67
2022-09-03T17:26:12.745Z,8.90
2022-09-03T17:28:28.307Z,10.00
2022-09-03T17:30:41.369Z,7.77
2022-09-03T17:33:37.833Z,3.97
2022-09-03T17:35:52.620Z,3.83
2022-09-03T17:38:07.586Z,6.50
2022-09-03T17:40:24.158Z,5.73
2022-09-03T17:42:34.825Z,8.27
2022-09-03T17:44:58.021Z,16.07
2022-09-03T17:47:27.505Z,18.00
2022-09-03T17:49:35.298Z,9.90
2022-09-03T17:51:46.149Z,10.43
2022-09-03T17:53:55.296Z,8.70
2022-09-03T17:56:02.406Z,10.27
2022-09-03T17:58:14.411Z,8.20
2022-09-03T18:00:25.434Z,7.30
2022-09-03T18:02:34.600Z,6.07
2022-09-03T18:04:47.640Z,7.67
2022-09-03T18:06:59.298Z,7.63
2022-09-03T18:09:08.590Z,6.70
2022-09-03T18:11:15.067Z,7.40
2022-09-03T18:13:26.132Z,8.57
2022-09-03T18:15:36.831Z,6.67
2022-09-03T18:17:46.830Z,11.07
2022-09-03T18:20:14.592Z,12.77
2022-09-03T18:22:35.203Z,16.03
2022-09-03T18:25:04.097Z,13.87
2022-09-03T18:27:31.040Z,11.43
2022-09-03T18:29:56.533Z,13.50
2022-09-03T18:32:18.468Z,9.90
2022-09-03T18:34:51.505Z,7.53
2022-09-03T18:37:15.961Z,7.07
2022-09-03T18:39:44.482Z,5.90
2022-09-03T18:42:21.496Z,6.87
2022-09-03T18:45:12.414Z,6.00
2022-09-03T18:48:01.435Z,6.00
2022-09-03T18:50:37.042Z,5.30
2022-09-03T18:53:04.907Z,5.47
2022-09-03T18:55:34.367Z,6.27
2022-09-03T18:58:05.628Z,5.60
2022-09-03T19:00:29.506Z,4.80
2022-09-03T19:03:02.050Z,5.43
2022-09-03T19:05:33.460Z,5.37
2022-09-03T19:08:02.426Z,6.20
2022-09-03T19:10:29.082Z,6.50
2022-09-03T19:13:02.987Z,6.30
2022-09-03T19:15:27.798Z,7.93
2022-09-03T19:17:55.458Z,6.57
2022-09-03T19:20:20.232Z,6.87
2022-09-03T19:22:48.224Z,5.60
2022-09-03T19:25:12.897Z,5.27
2022-09-03T19:28:00.208Z,5.97
2022-09-03T19:30:26.527Z,5.87
2022-09-03T19:32:56.238Z,5.37
2022-09-03T19:35:32.846Z,5.30
2022-09-03T19:38:04.992Z,4.93
2022-09-03T19:40:43.606Z,6.30
2022-09-03T19:43:14.052Z,4.53
2022-09-03T19:45:44.999Z,4.43
2022-09-03T19:48:17.561Z,4.93
2022-09-03T19:50:41.231Z,5.27
2022-09-03T19:53:06.458Z,5.47
2022-09-03T19:55:28.936Z,5.07
2022-09-03T19:57:52.432Z,5.20
2022-09-03T20:00:29.298Z,5.30
2022-09-03T20:02:54.939Z,4.73
2022-09-03T20:05:18.097Z,4.70
2022-09-03T20:07:40.739Z,4.20
2022-09-03T20:10:02.457Z,4.90
2022-09-03T20:12:10.481Z,4.93
2022-09-03T20:14:16.660Z,5.50
2022-09-03T20:16:25.928Z,5.30
2022-09-03T20:18:41.610Z,4.53
2022-09-03T20:20:52.167Z,6.17
2022-09-03T20:23:02.578Z,6.30
2022-09-03T20:25:24.256Z,6.23
2022-09-03T20:27:37.274Z,4.80
2022-09-03T20:29:54.664Z,4.90
2022-09-03T20:32:06.585Z,4.37
2022-09-03T20:34:26.461Z,4.30
2022-09-03T20:36:39.983Z,4.50
2022-09-03T20:39:15.652Z,4.10
2022-09-03T20:41:25.646Z,3.90
2022-09-03T20:43:48.131Z,4.20
2022-09-03T20:46:06.430Z,4.43
2022-09-03T20:48:22.167Z,3.93
2022-09-03T20:50:43.805Z,3.73
2022-09-03T20:52:57.615Z,3.60
2022-09-03T20:55:10.785Z,3.60
2022-09-03T20:57:33.184Z,4.77
2022-09-03T20:59:50.085Z,4.43
2022-09-03T21:01:58.537Z,4.30
2022-09-03T21:04:17.789Z,4.90
2022-09-03T21:06:32.410Z,4.80
2022-09-03T21:09:01.057Z,3.83
2022-09-03T21:11:09.194Z,4.47
2022-09-03T21:13:19.862Z,4.47
2022-09-03T21:15:29.889Z,3.60
2022-09-03T21:17:47.112Z,3.93
2022-09-03T21:20:08.604Z,3.60
2022-09-03T21:22:22.800Z,4.17
2022-09-03T21:24:31.679Z,4.90
2022-09-03T21:26:41.982Z,4.17
2022-09-03T21:28:50.606Z,4.20
2022-09-03T21:30:59.219Z,4.77
2022-09-03T21:33:08.930Z,4.80
2022-09-03T21:35:21.030Z,4.90
2022-09-03T21:37:26.066Z,5.00
2022-09-03T21:39:33.681Z,3.77
2022-09-03T21:41:40.997Z,4.13
2022-09-03T21:43:51.143Z,4.00
2022-09-03T21:46:01.507Z,4.07
2022-09-03T21:48:11.175Z,4.50
2022-09-03T21:50:19.770Z,4.50
2022-09-03T21:52:30.106Z,3.80
2022-09-03T21:54:34.976Z,4.23
2022-09-03T21:56:57.105Z,5.00
2022-09-03T21:59:09.927Z,4.47
2022-09-03T22:01:19.291Z,5.07
2022-09-03T22:03:26.666Z,4.63
2022-09-03T22:05:40.876Z,4.23
2022-09-03T22:07:53.621Z,4.40
2022-09-03T22:10:08.859Z,4.20
2022-09-03T22:12:19.486Z,4.43
2022-09-03T22:14:24.947Z,3.97
2022-09-03T22:16:33.538Z,4.53
2022-09-03T22:18:37.072Z,4.40
2022-09-03T22:20:40.836Z,3.90
2022-09-03T22:22:51.267Z,4.30
2022-09-03T22:25:04.784Z,5.20
2022-09-03T22:27:18.510Z,4.37
2022-09-03T22:29:35.105Z,4.60
2022-09-03T22:31:51.106Z,4.80
2022-09-03T22:34:03.459Z,4.20
2022-09-03T22:36:15.110Z,4.87
2022-09-03T22:38:56.528Z,4.07
2022-09-03T22:41:12.177Z,3.63
2022-09-03T22:43:28.228Z,3.87
2022-09-03T22:45:55.635Z,4.10
2022-09-03T22:48:11.787Z,4.23
2022-09-03T22:50:21.177Z,3.57
2022-09-03T22:52:33.085Z,4.53
2022-09-03T22:54:49.785Z,4.47
2022-09-03T22:56:53.815Z,3.83
2022-09-03T22:59:01.198Z,3.83
2022-09-03T23:01:10.247Z,4.40
2022-09-03T23:03:21.052Z,3.63
2022-09-03T23:05:36.709Z,4.70
2022-09-03T23:07:52.682Z,3.83
2022-09-03T23:10:03.715Z,4.83
2022-09-03T23:12:14.108Z,5.83
2022-09-03T23:14:21.252Z,5.40
2022-09-03T23:16:32.762Z,5.23
2022-09-03T23:18:38.276Z,5.83
2022-09-03T23:20:46.162Z,5.60
2022-09-03T23:22:59.769Z,4.27
2022-09-03T23:25:09.749Z,5.13
2022-09-03T23:27:25.533Z,4.70
2022-09-03T23:29:34.694Z,4.53
2022-09-03T23:31:39.627Z,4.70
2022-09-03T23:33:42.893Z,5.70
2022-09-03T23:35:54.283Z,5.50
2022-09-03T23:38:12.091Z,4.87
2022-09-03T23:40:31.272Z,5.50
2022-09-03T23:42:51.260Z,5.60
2022-09-03T23:45:10.286Z,5.10
2022-09-03T23:47:41.052Z,6.87
2022-09-03T23:50:02.529Z,6.20
2022-09-03T23:52:24.244Z,6.73
2022-09-03T23:54:39.132Z,6.23
2022-09-03T23:57:00.670Z,5.40
2022-09-03T23:59:13.794Z,5.13
